Time;durP1;ratioP1;P1;durP2;ratioP2;P2;SDS_P1;SDS_P2;PMS_P1;PMS_P2;Temp;Humidity;BMP_temperature;BMP_pressure;BME280_temperature;BME280_humidity;BME280_pressure;Samples;Min_cycle;Max_cycle;Signal;HPM_P1;HPM_P2
2022/08/28 00:00:09;;;;;;;8.82;5.97;;;;;;;16.92;100.00;93032.38;5089118;28;20040;-78
2022/08/28 00:02:37;;;;;;;15.40;6.63;;;;;;;16.91;100.00;93027.44;5089642;28;20050;-77
2022/08/28 00:05:05;;;;;;;11.18;6.65;;;;;;;16.89;100.00;93035.47;5089614;28;20044;-77
2022/08/28 00:07:31;;;;;;;8.85;6.20;;;;;;;16.82;100.00;93029.75;5089156;28;20051;-77
2022/08/28 00:09:58;;;;;;;11.00;6.35;;;;;;;16.83;100.00;93036.47;5089399;28;20036;-77
2022/08/28 00:12:25;;;;;;;8.88;6.03;;;;;;;16.81;100.00;93041.16;5088799;28;20101;-77
2022/08/28 00:14:53;;;;;;;8.20;6.13;;;;;;;16.76;100.00;93031.50;5089323;28;20039;-77
2022/08/28 00:17:20;;;;;;;9.32;5.95;;;;;;;16.73;100.00;93032.03;5089072;28;20438;-77
2022/08/28 00:19:47;;;;;;;11.15;6.25;;;;;;;16.73;100.00;93032.03;5089537;28;20052;-77
2022/08/28 00:22:14;;;;;;;14.70;5.90;;;;;;;16.55;100.00;93005.50;5089038;28;20052;-77
2022/08/28 00:24:41;;;;;;;9.80;6.40;;;;;;;16.70;100.00;93028.13;5089278;28;20119;-77
2022/08/28 00:29:57;;;;;;;11.63;5.85;;;;;;;16.68;100.00;93026.81;5089451;28;20402;-77
2022/08/28 00:32:24;;;;;;;9.63;6.15;;;;;;;16.59;100.00;93010.16;5088891;28;20040;-77
2022/08/28 00:34:51;;;;;;;11.43;6.75;;;;;;;16.65;100.00;93027.31;5089019;28;20048;-77
2022/08/28 00:37:17;;;;;;;9.57;5.93;;;;;;;16.50;100.00;93015.84;5089301;28;20044;-77
2022/08/28 00:39:45;;;;;;;8.80;6.03;;;;;;;16.51;100.00;93020.00;5089248;28;20043;-77
2022/08/28 00:42:12;;;;;;;11.93;6.78;;;;;;;16.49;100.00;93023.88;5089019;28;20529;-77
2022/08/28 00:44:39;;;;;;;11.73;6.93;;;;;;;16.51;100.00;93022.59;5089059;28;20124;-77
2022/08/28 00:47:08;;;;;;;8.70;6.57;;;;;;;16.59;100.00;93033.50;5088763;28;20088;-77
2022/08/28 00:49:42;;;;;;;11.50;7.03;;;;;;;16.52;100.00;93026.72;5088619;28;20037;-77
2022/08/28 00:52:08;;;;;;;14.85;6.45;;;;;;;16.53;100.00;93038.66;5089162;28;20044;-78
2022/08/28 00:54:38;;;;;;;11.27;6.95;;;;;;;16.50;100.00;93028.81;5088662;28;20506;-78
2022/08/28 00:57:13;;;;;;;11.10;7.22;;;;;;;16.41;100.00;93014.75;5088924;28;20113;-79
2022/08/28 00:59:40;;;;;;;9.82;6.38;;;;;;;16.44;100.00;93029.81;5089041;28;20126;-79
2022/08/28 01:02:08;;;;;;;10.07;6.90;;;;;;;16.43;100.00;93010.88;5088584;28;20040;-79
2022/08/28 01:04:36;;;;;;;11.13;6.55;;;;;;;16.41;100.00;93023.31;5088511;28;20557;-79
2022/08/28 01:07:06;;;;;;;9.57;6.65;;;;;;;16.35;100.00;93015.75;5088810;28;20036;-79
2022/08/28 01:09:37;;;;;;;10.55;6.18;;;;;;;16.36;100.00;93023.28;5088535;28;20434;-79
2022/08/28 01:12:09;;;;;;;9.63;6.68;;;;;;;16.37;100.00;93029.22;5091080;28;20047;-80
2022/08/28 01:14:39;;;;;;;14.48;5.80;;;;;;;16.32;100.00;93016.25;5092968;28;20412;-80
2022/08/28 01:17:09;;;;;;;9.40;6.45;;;;;;;16.26;100.00;93021.38;5092503;28;20048;-80
2022/08/28 01:19:39;;;;;;;10.82;6.13;;;;;;;16.18;100.00;93008.91;5092797;28;20089;-81
2022/08/28 01:22:17;;;;;;;8.45;6.65;;;;;;;16.17;100.00;93012.53;5092558;28;20044;-81
2022/08/28 01:24:46;;;;;;;10.32;6.72;;;;;;;16.16;100.00;93016.91;5092703;28;20048;-79
2022/08/28 01:27:13;;;;;;;9.75;6.10;;;;;;;16.14;100.00;93020.78;5092193;28;20097;-77
2022/08/28 01:29:40;;;;;;;10.20;6.65;;;;;;;16.13;100.00;93027.00;5092210;28;20480;-77
2022/08/28 01:32:07;;;;;;;9.63;6.88;;;;;;;16.10;100.00;93023.09;5092406;28;20040;-76
2022/08/28 01:34:34;;;;;;;16.13;6.88;;;;;;;16.13;100.00;93024.41;5091805;28;20048;-76
2022/08/28 01:37:02;;;;;;;11.60;6.90;;;;;;;16.11;100.00;93029.06;5092590;28;20052;-76
2022/08/28 01:39:28;;;;;;;9.30;6.68;;;;;;;16.12;100.00;93031.41;5092687;28;20048;-76
2022/08/28 01:41:58;;;;;;;10.98;7.18;;;;;;;16.11;100.00;93026.47;5092606;28;20040;-78
2022/08/28 01:44:27;;;;;;;10.85;6.78;;;;;;;16.04;100.00;93029.28;5092349;28;20059;-78
2022/08/28 01:46:56;;;;;;;9.60;6.28;;;;;;;16.03;100.00;93030.31;5092332;28;20066;-78
2022/08/28 01:49:27;;;;;;;11.65;6.85;;;;;;;16.05;100.00;93028.25;5092164;28;20487;-78
2022/08/28 01:51:56;;;;;;;12.02;6.82;;;;;;;16.05;100.00;93027.47;5092196;28;20052;-78
2022/08/28 01:54:24;;;;;;;9.68;6.85;;;;;;;15.95;100.00;93017.81;5092238;28;20054;-78
2022/08/28 01:56:51;;;;;;;10.90;7.05;;;;;;;15.96;100.00;93029.75;5092252;28;20048;-78
2022/08/28 01:59:19;;;;;;;10.18;6.47;;;;;;;15.93;100.00;93030.22;5092410;28;20415;-78
2022/08/28 02:01:46;;;;;;;9.57;6.90;;;;;;;15.90;100.00;93037.44;5092493;28;20065;-79
2022/08/28 02:04:13;;;;;;;11.73;7.07;;;;;;;15.68;100.00;92998.66;5092393;28;20439;-79
2022/08/28 02:06:40;;;;;;;11.43;7.03;;;;;;;15.82;100.00;93029.31;5092114;28;20056;-79
2022/08/28 02:09:08;;;;;;;13.73;6.93;;;;;;;15.80;100.00;93031.38;5092428;28;20097;-79
2022/08/28 02:11:35;;;;;;;11.80;6.88;;;;;;;15.80;100.00;93026.19;5092340;28;20048;-78
2022/08/28 02:14:02;;;;;;;10.65;7.53;;;;;;;15.78;100.00;93029.03;5091703;28;20048;-78
2022/08/28 02:16:31;;;;;;;13.27;7.93;;;;;;;15.77;100.00;93022.28;5092331;28;20091;-78
2022/08/28 02:18:57;;;;;;;11.43;7.22;;;;;;;15.76;100.00;93031.88;5092161;28;20093;-79
2022/08/28 02:21:25;;;;;;;11.25;6.97;;;;;;;15.77;100.00;93022.28;5091918;28;20060;-78
2022/08/28 02:23:52;;;;;;;11.68;7.38;;;;;;;15.71;100.00;93015.50;5091446;28;20134;-78
2022/08/28 02:26:19;;;;;;;10.55;6.90;;;;;;;15.46;100.00;92991.75;5092225;28;20047;-78
2022/08/28 02:28:47;;;;;;;11.70;7.05;;;;;;;15.70;100.00;93032.84;5092181;28;20052;-78
2022/08/28 02:31:14;;;;;;;10.40;7.00;;;;;;;15.50;100.00;93018.72;5091866;28;20051;-78
2022/08/28 02:33:44;;;;;;;10.18;6.82;;;;;;;15.58;100.00;93037.41;5091509;28;20094;-77
2022/08/28 02:36:14;;;;;;;12.07;7.18;;;;;;;15.51;100.00;93029.84;5091513;28;20040;-77
2022/08/28 02:38:40;;;;;;;13.30;7.03;;;;;;;15.57;100.00;93041.03;5091916;28;20048;-78
2022/08/28 02:41:08;;;;;;;11.13;7.28;;;;;;;15.56;100.00;93040.22;5091488;28;20097;-77
2022/08/28 02:43:35;;;;;;;11.25;7.82;;;;;;;15.53;100.00;93038.16;5091457;28;20121;-77
2022/08/28 02:46:02;;;;;;;11.35;7.28;;;;;;;15.52;100.00;93038.38;5091345;28;20044;-76
2022/08/28 02:48:30;;;;;;;15.50;9.73;;;;;;;15.44;100.00;93030.03;5091314;28;20044;-80
2022/08/28 02:51:00;;;;;;;14.82;8.55;;;;;;;15.49;100.00;93039.66;5091196;28;20142;-80
2022/08/28 02:53:27;;;;;;;12.63;8.13;;;;;;;15.48;100.00;93038.09;5091058;28;20043;-79
2022/08/28 02:55:55;;;;;;;9.88;8.07;;;;;;;15.46;100.00;93037.56;5091250;28;20101;-81
2022/08/28 02:58:21;;;;;;;14.13;8.80;;;;;;;15.43;100.00;93038.84;5091491;28;20130;-81
2022/08/28 03:00:49;;;;;;;13.20;8.20;;;;;;;15.43;100.00;93035.47;5091284;28;20043;-81
2022/08/28 03:03:16;;;;;;;15.15;8.32;;;;;;;15.46;100.00;93040.91;5091139;28;20056;-81
2022/08/28 03:05:43;;;;;;;14.88;7.80;;;;;;;15.40;100.00;93039.31;5090787;28;20500;-80
2022/08/28 03:08:11;;;;;;;9.90;7.72;;;;;;;15.35;100.00;93014.16;5091050;28;20048;-81
2022/08/28 03:10:38;;;;;;;11.93;6.97;;;;;;;15.45;100.00;93041.16;5091230;28;20446;-81
2022/08/28 03:13:05;;;;;;;14.73;7.85;;;;;;;15.45;100.00;93041.94;5090696;28;20063;-80
2022/08/28 03:15:32;;;;;;;12.68;7.68;;;;;;;15.34;100.00;93030.72;5091010;28;20071;-80
2022/08/28 03:17:58;;;;;;;10.55;7.18;;;;;;;15.39;100.00;93042.94;5090573;28;20048;-79
2022/08/28 03:20:26;;;;;;;11.25;7.47;;;;;;;15.35;100.00;93045.22;5090800;28;20071;-81
2022/08/28 03:25:38;;;;;;;12.60;7.80;;;;;;;15.31;100.00;93048.53;5090639;28;20105;-80
2022/08/28 03:28:05;;;;;;;13.35;7.93;;;;;;;15.19;100.00;93031.31;5090403;28;20503;-80
2022/08/28 03:30:32;;;;;;;10.82;7.43;;;;;;;15.21;100.00;93044.81;5090713;28;20392;-81
2022/08/28 03:32:59;;;;;;;14.77;7.78;;;;;;;15.21;100.00;93052.59;5090529;28;20066;-82
2022/08/28 03:35:26;;;;;;;13.05;8.35;;;;;;;15.09;100.00;93044.16;5089242;28;20060;-82
2022/08/28 03:37:53;;;;;;;10.45;7.65;;;;;;;14.96;100.00;93033.16;5090579;28;20403;-83
2022/08/28 03:40:20;;;;;;;13.45;8.18;;;;;;;15.16;100.00;93055.13;5090578;28;20090;-81
2022/08/28 03:42:49;;;;;;;12.25;8.32;;;;;;;15.10;100.00;93051.66;5090253;28;20438;-82
2022/08/28 03:45:15;;;;;;;12.25;8.38;;;;;;;15.13;100.00;93055.56;5090402;28;20044;-83
2022/08/28 03:47:42;;;;;;;10.48;8.13;;;;;;;15.08;100.00;93051.13;5090019;28;20052;-83
2022/08/28 03:50:11;;;;;;;11.57;7.00;;;;;;;15.14;100.00;93071.91;5089925;28;20048;-83
2022/08/28 03:52:38;;;;;;;11.95;8.55;;;;;;;15.03;100.00;93058.84;5090271;28;20061;-84
2022/08/28 03:55:06;;;;;;;13.57;7.88;;;;;;;15.09;100.00;93070.03;5089462;28;20044;-83
2022/08/28 03:57:33;;;;;;;11.98;8.10;;;;;;;15.09;100.00;93070.03;5089958;28;20054;-83
2022/08/28 04:00:02;;;;;;;14.80;8.30;;;;;;;15.05;100.00;93068.94;5090290;28;20113;-83
2022/08/28 04:02:28;;;;;;;13.25;8.02;;;;;;;15.01;100.00;93070.44;5089653;28;20138;-83
2022/08/28 04:04:55;;;;;;;12.15;8.45;;;;;;;15.04;100.00;93070.75;5089838;28;20044;-82
2022/08/28 04:07:22;;;;;;;12.70;7.85;;;;;;;14.92;100.00;93052.78;5089463;28;20052;-82
2022/08/28 04:09:49;;;;;;;11.75;7.90;;;;;;;15.10;100.00;93081.94;5089918;28;20471;-82
2022/08/28 04:12:16;;;;;;;11.52;8.52;;;;;;;15.08;100.00;93083.97;5089664;28;20094;-78
2022/08/28 04:14:42;;;;;;;13.75;8.65;;;;;;;15.00;100.00;93074.06;5089735;28;20048;-82
2022/08/28 04:17:11;;;;;;;18.67;9.02;;;;;;;15.09;100.00;93081.16;5086918;28;20047;-80
2022/08/28 04:19:37;;;;;;;15.95;8.80;;;;;;;15.02;100.00;93069.41;5087251;28;20047;-80
2022/08/28 04:22:04;;;;;;;15.30;8.68;;;;;;;15.15;100.00;93094.16;5087645;28;20050;-81
2022/08/28 04:24:31;;;;;;;17.55;8.43;;;;;;;15.17;100.00;93090.31;5086214;28;21284;-80
2022/08/28 04:26:58;;;;;;;12.00;7.72;;;;;;;15.18;100.00;93093.69;5087130;28;20465;-80
2022/08/28 04:29:25;;;;;;;13.25;7.78;;;;;;;15.02;100.00;93064.25;5079153;28;20450;-80
2022/08/28 04:31:51;;;;;;;12.32;7.82;;;;;;;15.27;100.00;93099.22;5089878;28;20081;-80
2022/08/28 04:34:20;;;;;;;15.52;9.38;;;;;;;15.27;100.00;93101.81;5089393;28;20093;-80
2022/08/28 04:36:49;;;;;;;13.93;8.20;;;;;;;15.03;100.00;93069.19;5089397;28;20051;-80
2022/08/28 04:39:16;;;;;;;13.68;7.93;;;;;;;15.28;100.00;93105.94;5077189;28;20048;-79
2022/08/28 04:41:43;;;;;;;13.75;8.20;;;;;;;15.31;100.00;93110.63;5089072;28;20040;-81
2022/08/28 04:44:10;;;;;;;13.18;8.65;;;;;;;15.34;100.00;93110.97;5089386;28;20101;-82
2022/08/28 04:46:37;;;;;;;11.23;7.90;;;;;;;15.33;100.00;93101.59;5089130;28;20108;-77
2022/08/28 04:49:04;;;;;;;12.45;8.73;;;;;;;15.41;100.00;93120.34;5088732;28;20044;-77
2022/08/28 04:51:33;;;;;;;14.27;8.23;;;;;;;15.42;100.00;93114.91;5087572;28;20135;-77
2022/08/28 04:54:02;;;;;;;14.77;8.57;;;;;;;15.46;100.00;93120.41;5088416;28;20090;-77
2022/08/28 04:56:30;;;;;;;14.43;9.50;;;;;;;15.46;100.00;93110.81;5088876;28;20044;-79
2022/08/28 04:58:57;;;;;;;13.63;8.48;;;;;;;15.57;100.00;93116.91;5087044;28;20055;-80
2022/08/28 05:01:24;;;;;;;14.68;8.95;;;;;;;15.62;100.00;93119.53;5087774;28;20048;-84
2022/08/28 05:03:56;;;;;;;15.50;9.50;;;;;;;15.65;100.00;93120.06;5088113;28;20079;-79
2022/08/28 05:06:25;;;;;;;16.13;9.07;;;;;;;15.75;100.00;93126.13;5087717;28;20566;-80
2022/08/28 05:08:54;;;;;;;11.95;9.10;;;;;;;15.80;100.00;93127.22;5087962;28;20115;-80
2022/08/28 05:11:24;;;;;;;17.52;9.38;;;;;;;15.81;100.00;93108.03;5088139;28;20459;-82
2022/08/28 05:13:51;;;;;;;19.02;9.88;;;;;;;15.95;100.00;93116.25;5088405;28;20051;-79
2022/08/28 05:16:19;;;;;;;16.80;9.05;;;;;;;16.06;100.00;93123.06;5088592;28;20048;-82
2022/08/28 05:18:46;;;;;;;13.93;8.95;;;;;;;16.16;100.00;93122.41;5087030;28;20444;-80
2022/08/28 05:21:14;;;;;;;17.33;10.00;;;;;;;16.26;100.00;93126.88;5088499;28;20101;-85
2022/08/28 05:23:41;;;;;;;13.85;9.00;;;;;;;16.33;100.00;93119.66;5088290;28;20055;-82
2022/08/28 05:26:13;;;;;;;15.85;9.15;;;;;;;16.36;100.00;93108.03;5088215;28;20109;-81
2022/08/28 05:28:40;;;;;;;18.00;9.93;;;;;;;16.55;100.00;93117.00;5087860;28;20108;-80
2022/08/28 05:31:11;;;;;;;12.50;8.82;;;;;;;16.64;100.00;93127.69;5088669;28;20040;-80
2022/08/28 05:33:38;;;;;;;13.00;8.15;;;;;;;16.74;100.00;93118.38;5088517;28;20040;-80
2022/08/28 05:36:06;;;;;;;18.08;9.00;;;;;;;16.83;100.00;93120.28;5088620;28;20048;-78
2022/08/28 05:38:34;;;;;;;14.45;9.45;;;;;;;16.95;100.00;93116.72;5078270;28;20492;-80
2022/08/28 05:41:02;;;;;;;13.57;9.85;;;;;;;17.02;100.00;93112.06;5085600;28;20166;-80
2022/08/28 05:43:31;;;;;;;15.05;9.23;;;;;;;17.11;100.00;93106.44;5088043;28;20109;-80
2022/08/28 05:45:58;;;;;;;15.57;8.82;;;;;;;17.35;100.00;93120.56;5088644;28;20123;-79
2022/08/28 05:48:30;;;;;;;13.45;9.27;;;;;;;17.48;100.00;93115.91;5088430;28;20048;-79
2022/08/28 05:50:57;;;;;;;13.02;8.45;;;;;;;17.59;100.00;93116.75;5074864;28;20572;-79
2022/08/28 05:53:25;;;;;;;13.30;8.82;;;;;;;17.70;100.00;93118.34;5088828;28;20048;-80
2022/08/28 05:55:52;;;;;;;13.45;9.18;;;;;;;17.85;100.00;93120.19;5088365;28;20052;-79
2022/08/28 05:58:33;;;;;;;16.70;10.85;;;;;;;17.92;100.00;93106.16;5089241;28;20085;-80
2022/08/28 06:01:11;;;;;;;16.75;9.93;;;;;;;18.27;100.00;93123.66;5092336;28;20466;-80
2022/08/28 06:03:38;;;;;;;18.00;8.70;;;;;;;18.47;100.00;93118.69;5092363;28;20051;-80
2022/08/28 06:06:05;;;;;;;15.93;9.15;;;;;;;18.68;100.00;93114.25;5091724;28;20044;-80
2022/08/28 06:08:33;;;;;;;17.23;9.82;;;;;;;18.87;100.00;93116.28;5092081;28;20048;-80
2022/08/28 06:11:01;;;;;;;15.18;8.88;;;;;;;18.84;100.00;93122.81;5091832;28;20048;-80
2022/08/28 06:13:27;;;;;;;15.60;9.00;;;;;;;18.93;100.00;93121.25;5092113;28;20040;-80
2022/08/28 06:15:55;;;;;;;14.45;8.35;;;;;;;19.03;100.00;93117.06;5080593;28;20094;-80
2022/08/28 06:18:24;;;;;;;14.77;7.03;;;;;;;18.80;100.00;93112.16;5091711;28;20048;-80
2022/08/28 06:20:52;;;;;;;14.98;8.15;;;;;;;19.06;100.00;93117.34;5091346;28;20052;-80
2022/08/28 06:23:27;;;;;;;17.10;8.43;;;;;;;19.30;100.00;93121.94;5091763;28;20461;-80
2022/08/28 06:26:21;;;;;;;16.85;7.55;;;;;;;19.28;100.00;93126.66;5091761;28;20472;-80
2022/08/28 06:28:48;;;;;;;13.82;7.68;;;;;;;19.38;100.00;93115.41;5090728;28;20094;-82
2022/08/28 06:31:15;;;;;;;14.10;7.20;;;;;;;19.62;99.80;93128.59;5091299;28;20089;-80
2022/08/28 06:33:44;;;;;;;12.80;7.28;;;;;;;19.92;100.00;93128.69;5091543;28;20056;-79
2022/08/28 06:36:12;;;;;;;12.93;7.28;;;;;;;20.12;97.34;93122.59;5091396;28;20082;-80
2022/08/28 06:38:39;;;;;;;16.70;8.18;;;;;;;20.46;97.82;93123.66;5091373;28;20839;-80
2022/08/28 06:41:09;;;;;;;12.70;7.25;;;;;;;20.64;94.43;93119.59;5091598;28;20048;-81
2022/08/28 06:43:36;;;;;;;11.95;7.68;;;;;;;21.00;92.52;93130.78;5091223;28;20044;-80
2022/08/28 06:46:03;;;;;;;17.05;7.15;;;;;;;21.22;91.32;93127.69;5090920;28;20047;-81
2022/08/28 06:48:30;;;;;;;14.23;6.95;;;;;;;21.25;86.77;93119.31;5091286;28;20048;-81
2022/08/28 06:50:59;;;;;;;13.20;6.53;;;;;;;21.45;85.72;93128.72;5091076;28;20044;-80
2022/08/28 06:53:29;;;;;;;13.23;6.78;;;;;;;21.78;83.73;93137.75;5091160;28;20097;-80
2022/08/28 06:56:03;;;;;;;15.45;6.63;;;;;;;22.09;81.47;93145.22;5090693;28;20050;-80
2022/08/28 06:58:31;;;;;;;12.95;7.00;;;;;;;22.49;81.74;93142.28;5090566;28;20496;-80
2022/08/28 07:01:02;;;;;;;17.17;6.85;;;;;;;22.58;80.26;93143.19;5090773;28;20492;-80
2022/08/28 07:03:30;;;;;;;17.42;7.47;;;;;;;22.71;78.63;93152.16;5090907;28;20048;-80
2022/08/28 07:05:59;;;;;;;18.25;8.30;;;;;;;23.11;79.64;93143.09;5091383;28;20048;-80
2022/08/28 07:08:28;;;;;;;17.35;7.90;;;;;;;23.32;76.91;93140.91;5090633;28;20079;-79
2022/08/28 07:10:55;;;;;;;10.63;6.82;;;;;;;23.68;75.25;93142.03;5090677;28;20040;-80
2022/08/28 07:13:22;;;;;;;11.95;6.20;;;;;;;23.84;74.88;93145.16;5090660;28;20055;-80
2022/08/28 07:15:49;;;;;;;16.13;7.18;;;;;;;23.89;73.44;93142.41;5084993;28;21312;-80
2022/08/28 07:18:17;;;;;;;14.15;6.03;;;;;;;23.76;73.60;93088.91;5091273;28;20040;-80
2022/08/28 07:20:45;;;;;;;12.38;6.78;;;;;;;24.46;71.45;93143.81;5090779;28;20044;-80
2022/08/28 07:23:13;;;;;;;12.93;6.60;;;;;;;24.27;69.64;93143.97;5090891;28;20071;-80
2022/08/28 07:25:40;;;;;;;11.93;6.30;;;;;;;24.53;67.95;93138.16;5090498;28;20051;-81
2022/08/28 07:28:08;;;;;;;15.35;7.10;;;;;;;24.83;70.00;93143.75;5090432;28;20410;-80
2022/08/28 07:30:35;;;;;;;13.05;6.50;;;;;;;25.12;70.72;93141.72;5090271;28;20048;-80
2022/08/28 07:33:02;;;;;;;15.82;6.72;;;;;;;25.43;68.09;93133.81;5082892;28;20132;-80
2022/08/28 07:35:29;;;;;;;16.55;6.30;;;;;;;25.57;64.87;93141.59;5088390;28;20060;-80
2022/08/28 07:37:56;;;;;;;9.77;5.63;;;;;;;25.77;65.40;93142.09;5090260;28;20044;-79
2022/08/28 07:40:24;;;;;;;16.65;6.57;;;;;;;25.86;65.21;93126.31;5088197;28;20052;-80
2022/08/28 07:45:35;;;;;;;12.48;5.97;;;;;;;26.33;61.09;93132.88;5078521;28;20522;-80
2022/08/28 07:48:05;;;;;;;8.88;6.22;;;;;;;26.62;63.10;93129.56;5090543;28;20147;-81
2022/08/28 07:50:31;;;;;;;13.00;5.90;;;;;;;26.77;59.17;93138.84;5090559;28;20056;-80
2022/08/28 07:52:58;;;;;;;12.30;6.45;;;;;;;26.43;58.73;93122.03;5090089;28;20101;-81
2022/08/28 07:55:28;;;;;;;15.90;5.75;;;;;;;26.69;59.69;93137.00;5089982;28;20435;-80
2022/08/28 07:57:55;;;;;;;19.05;7.93;;;;;;;26.77;61.77;93125.69;5090316;28;20075;-80
2022/08/28 08:00:22;;;;;;;10.05;5.72;;;;;;;27.07;60.99;93130.25;5089861;28;20541;-80
2022/08/28 08:02:49;;;;;;;14.43;6.53;;;;;;;27.42;61.76;93137.25;5090097;28;20048;-80
2022/08/28 08:05:15;;;;;;;11.18;5.65;;;;;;;27.73;58.71;93138.84;5089836;28;20074;-80
2022/08/28 08:07:42;;;;;;;13.13;5.18;;;;;;;27.88;55.90;93126.94;5088167;28;20052;-79
2022/08/28 08:10:12;;;;;;;10.95;6.10;;;;;;;28.11;55.16;93132.69;5089860;28;20044;-80
2022/08/28 08:12:41;;;;;;;10.10;5.78;;;;;;;28.36;57.02;93124.09;5089453;28;20501;-80
2022/08/28 08:15:08;;;;;;;14.55;6.00;;;;;;;28.08;55.51;93133.31;5083286;28;20037;-81
2022/08/28 08:17:35;;;;;;;11.43;6.20;;;;;;;27.87;57.85;93120.13;5089762;28;20048;-80
2022/08/28 08:20:03;;;;;;;14.88;5.57;;;;;;;27.40;56.25;93128.91;5089631;28;20051;-79
2022/08/28 08:22:30;;;;;;;12.25;5.40;;;;;;;26.90;58.04;93133.72;5089409;28;20423;-79
2022/08/28 08:24:56;;;;;;;10.98;5.53;;;;;;;27.24;58.25;93123.38;5089192;28;20462;-80
2022/08/28 08:27:23;;;;;;;12.75;6.28;;;;;;;27.56;56.04;93127.25;5089084;28;20052;-80
2022/08/28 08:29:51;;;;;;;10.40;5.18;;;;;;;27.79;57.72;93126.22;5089959;28;20048;-79
2022/08/28 08:32:18;;;;;;;14.70;5.38;;;;;;;27.89;56.12;93123.19;5089464;28;20089;-79
2022/08/28 08:34:46;;;;;;;11.20;5.00;;;;;;;27.90;51.94;93116.81;5089255;28;20067;-80
2022/08/28 08:37:13;;;;;;;10.20;5.22;;;;;;;28.33;55.62;93120.25;5089088;28;20051;-80
2022/08/28 08:39:59;;;;;;;10.32;5.28;;;;;;;28.73;54.15;93116.31;5089512;28;20051;-79
2022/08/28 08:42:32;;;;;;;14.00;4.97;;;;;;;28.65;50.23;93136.44;5081997;28;20044;-79
2022/08/28 08:45:03;;;;;;;10.65;5.05;;;;;;;29.03;51.07;93133.91;5089769;28;20052;-80
2022/08/28 08:47:36;;;;;;;11.93;5.13;;;;;;;28.86;49.94;93124.25;5089991;28;20131;-80
2022/08/28 08:50:07;;;;;;;7.40;4.28;;;;;;;28.79;49.62;93132.75;5090102;28;20044;-80
2022/08/28 08:52:45;;;;;;;12.27;5.15;;;;;;;29.00;49.32;93137.97;5089523;28;20082;-81
2022/08/28 08:55:22;;;;;;;15.82;5.25;;;;;;;28.80;49.00;93139.56;5089605;28;20056;-81
2022/08/28 08:58:11;;;;;;;14.05;5.30;;;;;;;29.24;50.74;93131.16;5089831;28;20127;-81
2022/08/28 09:00:49;;;;;;;10.80;4.85;;;;;;;29.62;50.19;93137.25;5086237;28;20057;-80
2022/08/28 09:03:22;;;;;;;10.10;5.28;;;;;;;29.77;49.12;93140.34;5089937;28;20097;-80
2022/08/28 09:06:02;;;;;;;10.23;4.57;;;;;;;29.53;47.65;93131.31;5086171;28;20101;-80
2022/08/28 09:08:36;;;;;;;10.73;5.03;;;;;;;29.41;48.65;93122.25;5087990;28;20129;-80
2022/08/28 09:11:15;;;;;;;12.13;4.83;;;;;;;29.26;47.29;93133.50;5089368;28;20160;-81
2022/08/28 09:13:52;;;;;;;7.93;4.00;;;;;;;28.97;46.34;93133.34;5089268;28;20685;-81
2022/08/28 09:16:29;;;;;;;8.00;4.05;;;;;;;29.04;46.20;93135.44;5086356;28;20083;-80
2022/08/28 09:18:59;;;;;;;7.82;4.07;;;;;;;28.83;45.81;93080.00;5089206;28;20495;-80
2022/08/28 09:21:27;;;;;;;11.98;3.90;;;;;;;29.77;47.27;93129.75;5089286;28;20067;-80
2022/08/28 09:23:55;;;;;;;9.77;4.38;;;;;;;30.22;47.03;93115.53;5089798;28;20412;-77
2022/08/28 09:26:23;;;;;;;5.68;3.60;;;;;;;30.45;44.01;93119.56;5088697;28;20055;-82
2022/08/28 09:29:00;;;;;;;7.25;4.38;;;;;;;30.27;42.32;93122.50;5080227;28;20052;-81
2022/08/28 09:31:34;;;;;;;14.85;4.53;;;;;;;30.04;42.71;93120.31;5087612;28;20048;-81
2022/08/28 09:34:23;;;;;;;8.27;4.00;;;;;;;29.81;42.69;93112.84;5090601;28;20048;-82
2022/08/28 09:36:51;;;;;;;9.50;3.72;;;;;;;30.18;43.36;93122.63;5092669;28;20093;-81
2022/08/28 09:39:21;;;;;;;9.35;3.88;;;;;;;29.83;41.45;93110.66;5092363;28;20411;-79
2022/08/28 09:44:52;;;;;;;11.50;4.05;;;;;;;30.16;43.67;93110.84;5092156;28;20051;-79
2022/08/28 09:47:44;;;;;;;10.75;4.40;;;;;;;30.66;38.96;93120.13;5092080;28;20048;-81
2022/08/28 09:50:22;;;;;;;11.27;4.00;;;;;;;30.70;39.68;93112.28;5092314;28;20048;-81
2022/08/28 09:52:50;;;;;;;8.57;4.47;;;;;;;30.93;40.55;93093.13;5089406;28;20085;-80
2022/08/28 09:55:24;;;;;;;11.93;4.20;;;;;;;31.46;40.49;93103.47;5082137;28;20048;-81
2022/08/28 09:57:53;;;;;;;8.20;4.37;;;;;;;31.96;38.41;93091.66;5089154;28;20047;-81
2022/08/28 10:00:21;;;;;;;6.60;3.95;;;;;;;32.37;38.95;93099.25;5090314;28;20321;-82
2022/08/28 10:02:58;;;;;;;11.27;4.18;;;;;;;32.75;37.92;93099.56;5086564;28;20703;-82
2022/08/28 10:05:37;;;;;;;8.30;3.50;;;;;;;33.02;37.71;93086.38;5083017;28;20044;-80
2022/08/28 10:08:15;;;;;;;8.30;3.53;;;;;;;33.18;35.11;93088.91;5090153;28;20440;-81
2022/08/28 10:10:49;;;;;;;6.85;3.90;;;;;;;33.22;34.89;93086.31;5090009;28;20097;-82
2022/08/28 10:13:20;;;;;;;8.85;3.95;;;;;;;32.43;34.70;93089.91;5090048;28;20048;-81
2022/08/28 10:16:08;;;;;;;8.52;4.00;;;;;;;33.01;36.14;93088.28;5079191;28;20048;-82
2022/08/28 10:18:45;;;;;;;7.47;4.03;;;;;;;32.96;34.32;93074.47;5091217;28;20048;-81
2022/08/28 10:21:20;;;;;;;8.77;4.20;;;;;;;33.28;34.97;93077.66;5088300;28;20423;-80
2022/08/28 10:24:12;;;;;;;8.70;3.75;;;;;;;32.99;32.52;93065.81;5090200;28;20519;-81
2022/08/28 10:26:48;;;;;;;10.20;3.40;;;;;;;33.39;33.67;93069.84;5088248;28;20052;-81
2022/08/28 10:29:33;;;;;;;7.35;3.63;;;;;;;33.06;30.57;93073.91;5091782;28;20097;-82
2022/08/28 10:32:17;;;;;;;9.20;3.45;;;;;;;32.36;32.04;93063.19;5091716;28;20492;-82
2022/08/28 10:35:02;;;;;;;8.20;4.10;;;;;;;30.71;32.63;93054.72;5089493;28;20123;-86
2022/08/28 10:37:44;;;;;;;9.02;3.70;;;;;;;30.74;33.52;93070.72;5089739;28;20038;-80
2022/08/28 10:40:16;;;;;;;6.00;3.17;;;;;;;30.45;33.04;93063.91;5092296;28;20052;-81
2022/08/28 10:42:50;;;;;;;7.15;3.60;;;;;;;30.91;31.82;93063.53;5092020;28;20051;-82
2022/08/28 10:45:21;;;;;;;6.80;2.95;;;;;;;31.40;27.48;93067.72;5092639;28;20048;-83
2022/08/28 10:47:52;;;;;;;7.63;3.30;;;;;;;31.82;30.59;93066.31;5092418;28;20044;-81
2022/08/28 10:50:25;;;;;;;5.93;3.28;;;;;;;32.35;31.49;93066.97;5093429;28;20138;-82
2022/08/28 10:52:59;;;;;;;7.88;3.40;;;;;;;32.81;33.37;93062.84;5090782;28;20071;-81
2022/08/28 10:55:33;;;;;;;8.32;3.25;;;;;;;33.23;31.25;93051.34;5091452;28;20048;-79
2022/08/28 10:58:03;;;;;;;5.18;2.70;;;;;;;33.71;30.10;93066.09;5091011;28;20068;-81
2022/08/28 11:00:32;;;;;;;13.57;3.92;;;;;;;33.78;29.73;93030.81;5091482;28;20044;-83
2022/08/28 11:03:02;;;;;;;9.60;3.45;;;;;;;33.99;29.92;93028.38;5091315;28;20097;-82
2022/08/28 11:05:34;;;;;;;5.78;3.50;;;;;;;34.54;28.51;93052.97;5091192;28;20081;-82
2022/08/28 11:08:08;;;;;;;6.90;3.60;;;;;;;34.70;28.48;93054.66;5091268;28;20040;-83
2022/08/28 11:10:47;;;;;;;7.55;2.60;;;;;;;34.90;28.64;93044.53;5090967;28;20089;-82
2022/08/28 11:13:55;;;;;;;6.50;3.75;;;;;;;35.17;28.52;93039.78;5091025;28;20496;-82
2022/08/28 11:16:41;;;;;;;6.03;2.92;;;;;;;35.50;28.18;93052.59;5078661;28;20058;-82
2022/08/28 11:19:47;;;;;;;6.82;3.03;;;;;;;35.48;27.09;93026.25;5090293;28;20054;-85
2022/08/28 11:22:23;;;;;;;7.45;3.55;;;;;;;35.45;27.63;92997.63;5090674;28;20058;-85
2022/08/28 11:25:03;;;;;;;5.38;2.55;;;;;;;35.76;23.53;93046.25;5090612;28;20048;-87
2022/08/28 11:27:44;;;;;;;7.15;3.38;;;;;;;35.64;26.70;93014.53;5090207;28;20090;-86
2022/08/28 11:30:31;;;;;;;7.13;2.92;;;;;;;35.90;28.19;93018.06;5087327;28;20492;-83
2022/08/28 11:33:30;;;;;;;7.80;3.08;;;;;;;35.95;26.76;93041.75;5088524;28;20513;-83
2022/08/28 11:35:56;;;;;;;6.85;3.28;;;;;;;35.63;24.94;93037.03;5090539;28;20119;-85
2022/08/28 11:39:06;;;;;;;9.90;4.30;;;;;;;35.80;28.25;93039.03;5090149;28;20051;-83
2022/08/28 11:41:35;;;;;;;8.25;3.75;;;;;;;36.00;27.46;93036.03;5080244;28;20056;-86
2022/08/28 11:44:39;;;;;;;8.85;3.17;;;;;;;35.79;26.80;93034.06;5089747;28;20127;-83
2022/08/28 11:47:40;;;;;;;;;;;;;;;36.20;28.23;93036.53;5076942;28;20488;-83
2022/08/28 11:50:28;;;;;;;9.05;3.50;;;;;;;35.70;25.26;93021.81;5026986;28;19931;-86